Bancroft, Maine
Current Conditions -  °F | °C
As of 12:53 PM on Monday 22 Dec 2014 (Local Time) from KHUL Reporting Station
Overcast Overcast  
Wind Chill: 24°   Ceiling: 2700
Heat Index: 29°   Visibility: 10mi
Dew Point: 23°   Wind: 5mph
Humidity: 78%   Direction: 210°SSW
Pressure: 30.39"   Gusts: NA
Location:  45.7877°N, 68.0764°W
Report Text: KHUL 221753Z AUTO 21004KT 10SM FEW014 BKN027 OVC045 M02/M05 A3039 RMK AO2 SLP299 T10171050 11017 21050 56007
Loading
Personal Weather Stations






























Interactive Weather Map New forecast layout! Learn more

10-Day Weather Forecast

Advertisements
Track Severe Weather on mobile